createdAt,value
2019-04-05T00:02:19.242Z,92609.36
2019-04-05T00:04:47.696Z,92607.42
2019-04-05T00:07:16.257Z,92602.28
2019-04-05T00:09:44.842Z,92604.87
2019-04-05T00:12:13.386Z,92602.48
2019-04-05T00:14:41.852Z,92592.98
2019-04-05T00:17:10.272Z,92589.13
2019-04-05T00:19:38.766Z,92582.34
2019-04-05T00:22:07.227Z,92580.28
2019-04-05T00:24:35.680Z,92580.44
2019-04-05T00:27:04.300Z,92580.34
2019-04-05T00:29:32.834Z,92571.05
2019-04-05T00:32:01.306Z,92564.78
2019-04-05T00:34:29.733Z,92566.88
2019-04-05T00:36:58.224Z,92558.83
2019-04-05T00:39:26.681Z,92558.16
2019-04-05T00:41:55.106Z,92560.94
2019-04-05T00:44:23.639Z,92564.33
2019-04-05T00:46:52.155Z,92571.23
2019-04-05T00:49:20.667Z,92572.95
2019-04-05T00:51:49.262Z,92576.05
2019-04-05T00:54:17.792Z,92574.14
2019-04-05T00:56:46.452Z,92583.97
2019-04-05T00:59:15.048Z,92580.58
2019-04-05T01:01:43.609Z,92590.75
2019-04-05T01:04:12.033Z,92589.88
2019-04-05T01:06:40.632Z,92587.00
2019-04-05T01:09:09.248Z,92590.42
2019-04-05T01:11:37.864Z,92595.40
2019-04-05T01:14:06.437Z,92593.46
2019-04-05T01:16:35.053Z,92597.53
2019-04-05T01:19:04.158Z,92597.17
2019-04-05T01:21:35.750Z,92610.09
2019-04-05T01:24:05.434Z,92605.89
2019-04-05T01:26:36.096Z,92614.30
2019-04-05T01:29:04.704Z,92616.91
2019-04-05T01:31:34.862Z,92624.31
2019-04-05T01:34:05.562Z,92624.28
2019-04-05T01:36:33.642Z,92623.66
2019-04-05T01:39:02.098Z,92624.63
2019-04-05T01:41:30.705Z,92629.80
2019-04-05T01:43:59.240Z,92635.30
2019-04-05T01:46:27.723Z,92641.75
2019-04-05T01:48:56.511Z,92640.78
2019-04-05T01:51:25.293Z,92637.55
2019-04-05T01:53:53.855Z,92639.78
2019-04-05T01:56:22.331Z,92634.16
2019-04-05T01:58:50.744Z,92638.20
2019-04-05T02:01:19.286Z,92627.86
2019-04-05T02:03:47.697Z,92626.38
2019-04-05T02:06:16.282Z,92618.44
2019-04-05T02:08:44.968Z,92610.07
2019-04-05T02:11:13.556Z,92610.36
2019-04-05T02:13:42.170Z,92610.07
2019-04-05T02:16:10.806Z,92603.22
2019-04-05T02:18:39.296Z,92597.89
2019-04-05T02:21:08.273Z,92594.20
2019-04-05T02:23:36.832Z,92597.91
2019-04-05T02:26:05.584Z,92597.73
2019-04-05T02:28:34.167Z,92592.97
2019-04-05T02:31:02.663Z,92594.43
2019-04-05T02:33:31.165Z,92586.63
2019-04-05T02:35:59.678Z,92579.64
2019-04-05T02:38:28.260Z,92581.17
2019-04-05T02:40:59.099Z,92587.19
2019-04-05T02:43:31.052Z,92588.10
2019-04-05T02:45:59.945Z,92592.59
2019-04-05T02:48:30.889Z,92599.38
2019-04-05T02:51:02.641Z,92600.05
2019-04-05T02:53:33.676Z,92607.13
2019-04-05T02:56:03.396Z,92611.72
2019-04-05T02:58:33.800Z,92611.82
2019-04-05T03:01:02.772Z,92606.92
2019-04-05T03:03:31.366Z,92606.44
2019-04-05T03:05:59.937Z,92605.95
2019-04-05T03:08:28.765Z,92609.77
2019-04-05T03:11:06.031Z,92607.48
2019-04-05T03:13:37.540Z,92598.77
2019-04-05T03:16:09.235Z,92602.31
2019-04-05T03:18:40.702Z,92599.05
2019-04-05T03:21:09.992Z,92601.86
2019-04-05T03:23:41.535Z,92601.24
2019-04-05T03:26:13.049Z,92592.03
2019-04-05T03:28:44.081Z,92594.17
2019-04-05T03:31:13.241Z,92598.70
2019-04-05T03:33:42.283Z,92607.71
2019-04-05T03:36:10.862Z,92600.24
2019-04-05T03:38:39.348Z,92596.36
2019-04-05T03:41:08.297Z,92593.48
2019-04-05T03:43:37.085Z,92587.31
2019-04-05T03:46:06.442Z,92587.67
2019-04-05T03:48:35.352Z,92590.91
2019-04-05T03:51:03.958Z,92591.36
2019-04-05T03:53:32.441Z,92592.45
2019-04-05T03:56:02.048Z,92596.65
2019-04-05T03:58:30.519Z,92591.80
2019-04-05T04:00:59.146Z,92592.00
2019-04-05T04:03:27.729Z,92588.93
2019-04-05T04:05:56.242Z,92590.23
2019-04-05T04:08:24.911Z,92587.31
2019-04-05T04:10:55.084Z,92592.80
2019-04-05T04:13:23.674Z,92597.33
2019-04-05T04:15:53.128Z,92592.61
2019-04-05T04:18:21.693Z,92596.61
2019-04-05T04:20:53.526Z,92597.30
2019-04-05T04:23:25.116Z,92593.70
2019-04-05T04:25:55.213Z,92589.98
2019-04-05T04:28:24.280Z,92585.86
2019-04-05T04:30:52.941Z,92591.92
2019-04-05T04:33:21.638Z,92596.58
2019-04-05T04:35:51.003Z,92591.72
2019-04-05T04:38:20.012Z,92592.41
2019-04-05T04:40:48.806Z,92594.84
2019-04-05T04:43:17.695Z,92600.34
2019-04-05T04:45:46.693Z,92596.08
2019-04-05T04:48:15.883Z,92596.85
2019-04-05T04:50:44.735Z,92596.08
2019-04-05T04:53:13.592Z,92605.13
2019-04-05T04:55:42.280Z,92601.80
2019-04-05T04:58:10.986Z,92604.66
2019-04-05T05:00:39.710Z,92612.03
2019-04-05T05:03:08.406Z,92615.56
2019-04-05T05:05:36.980Z,92607.77
2019-04-05T05:08:06.064Z,92612.59
2019-04-05T05:10:34.645Z,92614.50
2019-04-05T05:13:03.447Z,92611.59
2019-04-05T05:15:32.100Z,92615.39
2019-04-05T05:18:01.576Z,92602.79
2019-04-05T05:20:30.307Z,92596.00
2019-04-05T05:22:59.181Z,92604.33
2019-04-05T05:25:27.988Z,92609.02
2019-04-05T05:27:57.273Z,92603.03
2019-04-05T05:30:27.479Z,92605.58
2019-04-05T05:32:56.347Z,92608.13
2019-04-05T05:35:25.092Z,92611.31
2019-04-05T05:37:54.152Z,92602.27
2019-04-05T05:40:34.101Z,92604.86
2019-04-05T05:42:53.013Z,92604.58
2019-04-05T05:45:21.620Z,92595.59
2019-04-05T05:47:52.141Z,92600.55
2019-04-05T05:50:20.743Z,92613.22
2019-04-05T05:52:50.226Z,92609.41
2019-04-05T05:55:18.843Z,92608.13
2019-04-05T05:57:47.273Z,92603.84
2019-04-05T06:00:17.422Z,92605.73
2019-04-05T06:02:48.249Z,92612.90
2019-04-05T06:05:16.338Z,92606.70
2019-04-05T06:07:46.305Z,92604.67
2019-04-05T06:10:15.063Z,92602.36
2019-04-05T06:12:43.508Z,92610.40
2019-04-05T06:15:12.070Z,92605.12
2019-04-05T06:17:40.481Z,92601.23
2019-04-05T06:20:09.471Z,92612.28
2019-04-05T06:22:38.012Z,92612.88
2019-04-05T06:25:07.669Z,92609.05
2019-04-05T06:27:36.215Z,92613.43
2019-04-05T06:30:08.924Z,92615.52
2019-04-05T06:32:37.327Z,92621.73
2019-04-05T06:35:06.933Z,92624.95
2019-04-05T06:37:35.443Z,92617.72
2019-04-05T06:40:06.438Z,92619.06
2019-04-05T06:42:34.864Z,92619.41
2019-04-05T06:45:03.689Z,92619.41
2019-04-05T06:47:32.117Z,92606.92
2019-04-05T06:50:00.529Z,92598.88
2019-04-05T06:52:28.988Z,92600.39
2019-04-05T06:54:57.410Z,92603.44
2019-04-05T06:57:25.942Z,92601.83
2019-04-05T06:59:54.467Z,92599.41
2019-04-05T07:02:23.008Z,92604.33
2019-04-05T07:04:51.463Z,92614.52
2019-04-05T07:07:19.910Z,92610.48
2019-04-05T07:09:48.353Z,92599.78
2019-04-05T07:12:16.777Z,92603.61
2019-04-05T07:14:45.228Z,92594.02
2019-04-05T07:17:13.650Z,92604.77
2019-04-05T07:19:42.164Z,92601.36
2019-04-05T07:22:10.622Z,92600.31
2019-04-05T07:24:39.093Z,92605.09
2019-04-05T07:27:07.596Z,92604.95
2019-04-05T07:29:36.073Z,92603.94
2019-04-05T07:32:05.483Z,92608.78
2019-04-05T07:34:33.958Z,92606.23
2019-04-05T07:37:02.445Z,92606.61
2019-04-05T07:39:31.038Z,92612.09
2019-04-05T07:41:59.463Z,92604.22
2019-04-05T07:44:28.054Z,92608.42
2019-04-05T07:46:56.588Z,92611.59
2019-04-05T07:49:25.065Z,92612.47
2019-04-05T07:51:53.489Z,92614.59
2019-04-05T07:54:22.155Z,92616.77
2019-04-05T07:56:50.603Z,92618.26
2019-04-05T07:59:20.895Z,92623.41
2019-04-05T08:01:49.284Z,92622.34
2019-04-05T08:04:17.778Z,92618.48
2019-04-05T08:06:48.652Z,92617.27
2019-04-05T08:09:18.787Z,92618.16
2019-04-05T08:11:47.986Z,92608.52
2019-04-05T08:14:18.095Z,92605.81
2019-04-05T08:16:46.904Z,92604.81
2019-04-05T08:19:15.465Z,92608.03
2019-04-05T08:21:43.945Z,92594.44
2019-04-05T08:24:12.515Z,92592.75
2019-04-05T08:26:40.977Z,92594.66
2019-04-05T08:29:09.440Z,92593.60
2019-04-05T08:31:37.941Z,92595.31
2019-04-05T08:34:06.481Z,92590.33
2019-04-05T08:36:34.909Z,92591.19
2019-04-05T08:39:05.083Z,92598.82
2019-04-05T08:41:33.549Z,92590.77
2019-04-05T08:44:02.000Z,92595.38
2019-04-05T08:46:30.531Z,92596.47
2019-04-05T08:49:09.995Z,92589.88
2019-04-05T08:51:29.188Z,92588.48
2019-04-05T08:53:57.601Z,92583.03
2019-04-05T08:56:26.159Z,92579.27
2019-04-05T08:58:54.588Z,92577.20
2019-04-05T09:01:23.061Z,92579.20
2019-04-05T09:03:51.590Z,92575.26
2019-04-05T09:06:20.018Z,92580.77
2019-04-05T09:08:48.477Z,92579.62
2019-04-05T09:11:16.927Z,92572.83
2019-04-05T09:13:45.452Z,92571.71
2019-04-05T09:16:13.972Z,92565.31
2019-04-05T09:18:42.448Z,92562.34
2019-04-05T09:21:10.941Z,92554.52
2019-04-05T09:23:39.371Z,92551.52
2019-04-05T09:26:07.901Z,92549.48
2019-04-05T09:28:36.321Z,92551.00
2019-04-05T09:31:04.858Z,92547.63
2019-04-05T09:33:33.351Z,92553.72
2019-04-05T09:36:01.827Z,92556.17
2019-04-05T09:38:30.275Z,92559.82
2019-04-05T09:40:58.745Z,92557.91
2019-04-05T09:43:27.226Z,92556.14
2019-04-05T09:45:55.756Z,92552.39
2019-04-05T09:48:24.460Z,92550.97
2019-04-05T09:50:53.082Z,92544.13
2019-04-05T09:53:21.614Z,92544.50
2019-04-05T09:55:50.069Z,92540.97
2019-04-05T09:58:18.551Z,92551.38
2019-04-05T10:00:47.055Z,92560.03
2019-04-05T10:03:15.518Z,92554.87
2019-04-05T10:05:44.017Z,92540.55
2019-04-05T10:08:12.807Z,92537.09
2019-04-05T10:10:41.303Z,92535.94
2019-04-05T10:13:10.087Z,92529.11
2019-04-05T10:15:38.736Z,92525.33
2019-04-05T10:18:07.276Z,92524.27
2019-04-05T10:20:38.815Z,92520.23
2019-04-05T10:23:06.215Z,92530.87
2019-04-05T10:25:34.711Z,92523.51
2019-04-05T10:28:03.185Z,92530.03
2019-04-05T10:30:31.606Z,92527.81
2019-04-05T10:33:00.085Z,92528.62
2019-04-05T10:35:28.511Z,92523.37
2019-04-05T10:37:58.434Z,92516.82
2019-04-05T10:40:27.224Z,92516.86
2019-04-05T10:42:55.691Z,92508.42
2019-04-05T10:45:24.264Z,92509.73
2019-04-05T10:47:52.733Z,92515.41
2019-04-05T10:50:21.490Z,92514.81
2019-04-05T10:52:50.030Z,92507.05
2019-04-05T10:55:18.778Z,92504.86
2019-04-05T10:57:48.920Z,92503.30
2019-04-05T11:00:19.743Z,92514.34
2019-04-05T11:02:48.263Z,92516.41
2019-04-05T11:05:16.988Z,92510.19
2019-04-05T11:07:45.438Z,92503.64
2019-04-05T11:10:14.519Z,92496.39
2019-04-05T11:12:43.047Z,92499.21
2019-04-05T11:15:14.979Z,92495.36
2019-04-05T11:17:42.631Z,92497.16
2019-04-05T11:20:21.377Z,92502.72
2019-04-05T11:22:41.993Z,92497.27
2019-04-05T11:25:11.603Z,92504.16
2019-04-05T11:27:40.083Z,92499.46
2019-04-05T11:30:09.771Z,92506.83
2019-04-05T11:32:38.546Z,92502.03
2019-04-05T11:35:08.145Z,92509.75
2019-04-05T11:37:39.538Z,92512.45
2019-04-05T11:40:10.116Z,92514.02
2019-04-05T11:42:38.978Z,92512.83
2019-04-05T11:45:09.292Z,92513.98
2019-04-05T11:47:38.757Z,92516.58
2019-04-05T11:50:13.186Z,92507.83
2019-04-05T11:52:42.017Z,92515.25
2019-04-05T11:55:10.528Z,92519.98
2019-04-05T11:57:41.060Z,92518.23
2019-04-05T12:00:14.544Z,92513.77
2019-04-05T12:02:44.758Z,92514.19
2019-04-05T12:05:14.989Z,92515.48
2019-04-05T12:07:43.508Z,92517.70
2019-04-05T12:10:12.147Z,92509.48
2019-04-05T12:12:40.615Z,92508.95
2019-04-05T12:15:09.311Z,92506.45
2019-04-05T12:17:37.809Z,92503.44
2019-04-05T12:20:08.007Z,92500.47
2019-04-05T12:22:36.540Z,92497.67
2019-04-05T12:25:07.342Z,92500.83
2019-04-05T12:27:36.070Z,92500.81
2019-04-05T12:30:08.604Z,92492.95
2019-04-05T12:32:41.258Z,92494.37
2019-04-05T12:35:08.640Z,92488.73
2019-04-05T12:37:49.612Z,92483.08
2019-04-05T12:40:10.211Z,92485.52
2019-04-05T12:42:38.576Z,92488.21
2019-04-05T12:45:07.521Z,92475.81
2019-04-05T12:47:36.088Z,92489.47
2019-04-05T12:50:06.215Z,92485.00
2019-04-05T12:52:34.706Z,92484.74
2019-04-05T12:55:03.336Z,92492.25
2019-04-05T12:57:31.917Z,92483.82
2019-04-05T13:00:00.321Z,92483.68
2019-04-05T13:02:33.881Z,92480.88
2019-04-05T13:04:59.085Z,92477.08
2019-04-05T13:07:27.497Z,92480.90
2019-04-05T13:09:55.988Z,92477.00
2019-04-05T13:12:26.238Z,92469.86
2019-04-05T13:14:59.611Z,92468.53
2019-04-05T13:17:24.803Z,92466.75
2019-04-05T13:19:53.224Z,92470.67
2019-04-05T13:22:24.479Z,92470.93
2019-04-05T13:24:52.907Z,92459.97
2019-04-05T13:27:21.403Z,92468.17
2019-04-05T13:29:49.935Z,92467.95
2019-04-05T13:32:21.381Z,92457.47
2019-04-05T13:34:48.551Z,92461.72
2019-04-05T13:37:20.430Z,92467.56
2019-04-05T13:39:48.882Z,92459.75
2019-04-05T13:42:17.405Z,92462.66
2019-04-05T13:44:45.843Z,92461.41
2019-04-05T13:47:14.337Z,92459.27
2019-04-05T13:49:42.811Z,92460.64
2019-04-05T13:52:12.626Z,92462.12
2019-04-05T13:54:41.190Z,92462.72
2019-04-05T13:57:11.427Z,92452.39
2019-04-05T13:59:39.818Z,92453.08
2019-04-05T14:02:08.714Z,92459.89
2019-04-05T14:04:37.240Z,92453.14
2019-04-05T14:07:05.900Z,92461.92
2019-04-05T14:09:34.513Z,92459.61
2019-04-05T14:12:04.036Z,92451.83
2019-04-05T14:14:32.575Z,92443.43
2019-04-05T14:17:01.266Z,92445.95
2019-04-05T14:19:30.003Z,92451.43
2019-04-05T14:22:08.326Z,92453.83
2019-04-05T14:24:28.771Z,92457.41
2019-04-05T14:26:57.378Z,92459.81
2019-04-05T14:29:25.809Z,92451.52
2019-04-05T14:31:54.459Z,92454.47
2019-04-05T14:34:23.728Z,92451.61
2019-04-05T14:36:52.938Z,92459.08
2019-04-05T14:39:21.540Z,92456.63
2019-04-05T14:41:50.022Z,92457.00
2019-04-05T14:44:18.666Z,92457.07
2019-04-05T14:46:47.130Z,92459.24
2019-04-05T14:49:15.571Z,92468.85
2019-04-05T14:51:52.869Z,92457.70
2019-04-05T14:54:14.276Z,92460.16
2019-04-05T14:56:42.756Z,92454.47
2019-04-05T14:59:11.423Z,92451.08
2019-04-05T15:01:39.940Z,92456.42
2019-04-05T15:04:08.543Z,92459.73
2019-04-05T15:06:37.062Z,92453.32
2019-04-05T15:09:07.030Z,92454.82
2019-04-05T15:11:35.558Z,92466.38
2019-04-05T15:14:04.401Z,92460.14
2019-04-05T15:16:32.925Z,92465.50
2019-04-05T15:19:01.435Z,92463.37
2019-04-05T15:21:29.891Z,92468.13
2019-04-05T15:23:58.482Z,92472.84
2019-04-05T15:26:27.055Z,92479.47
2019-04-05T15:28:55.831Z,92479.42
2019-04-05T15:31:26.537Z,92472.91
2019-04-05T15:33:55.651Z,92475.02
2019-04-05T15:36:24.673Z,92470.13
2019-04-05T15:38:53.105Z,92469.35
2019-04-05T15:41:22.009Z,92468.19
2019-04-05T15:43:50.572Z,92470.61
2019-04-05T15:46:19.071Z,92469.78
2019-04-05T15:48:49.620Z,92471.03
2019-04-05T15:51:18.011Z,92469.72
2019-04-05T15:53:46.437Z,92470.42
2019-04-05T15:56:14.852Z,92475.25
2019-04-05T15:58:43.532Z,92477.23
2019-04-05T16:01:12.337Z,92481.81
2019-04-05T16:03:41.278Z,92480.19
2019-04-05T16:06:09.888Z,92473.80
2019-04-05T16:08:38.383Z,92473.16
2019-04-05T16:11:06.982Z,92476.63
2019-04-05T16:13:35.445Z,92475.34
2019-04-05T16:16:03.944Z,92470.38
2019-04-05T16:18:32.447Z,92471.56
2019-04-05T16:21:01.121Z,92477.51
2019-04-05T16:23:29.651Z,92480.66
2019-04-05T16:25:58.149Z,92478.20
2019-04-05T16:28:26.614Z,92476.70
2019-04-05T16:30:55.166Z,92481.34
2019-04-05T16:33:23.604Z,92491.59
2019-04-05T16:35:52.125Z,92490.82
2019-04-05T16:38:20.629Z,92491.45
2019-04-05T16:40:49.178Z,92489.48
2019-04-05T16:43:17.680Z,92489.08
2019-04-05T16:45:46.200Z,92488.64
2019-04-05T16:48:14.729Z,92492.42
2019-04-05T16:50:43.162Z,92496.17
2019-04-05T16:53:11.620Z,92495.58
2019-04-05T16:55:40.192Z,92496.06
2019-04-05T16:58:08.718Z,92493.61
2019-04-05T17:00:37.234Z,92499.42
2019-04-05T17:03:05.741Z,92492.42
2019-04-05T17:05:34.281Z,92492.30
2019-04-05T17:08:02.868Z,92492.38
2019-04-05T17:10:31.353Z,92496.51
2019-04-05T17:12:59.887Z,92505.02
2019-04-05T17:15:28.549Z,92502.91
2019-04-05T17:17:57.013Z,92504.70
2019-04-05T17:20:25.442Z,92512.91
2019-04-05T17:22:58.311Z,92509.73
2019-04-05T17:25:24.124Z,92509.70
2019-04-05T17:27:52.705Z,92513.33
2019-04-05T17:30:21.193Z,92520.73
2019-04-05T17:32:49.661Z,92511.61
2019-04-05T17:35:19.456Z,92515.42
2019-04-05T17:37:47.909Z,92519.22
2019-04-05T17:40:16.518Z,92518.14
2019-04-05T17:42:45.024Z,92525.73
2019-04-05T17:45:13.517Z,92518.81
2019-04-05T17:47:42.072Z,92523.89
2019-04-05T17:50:12.033Z,92522.52
2019-04-05T17:52:40.520Z,92533.35
2019-04-05T17:55:09.118Z,92527.41
2019-04-05T17:57:37.622Z,92532.86
2019-04-05T18:00:09.743Z,92522.11
2019-04-05T18:02:38.328Z,92523.89
2019-04-05T18:05:07.518Z,92521.33
2019-04-05T18:07:35.971Z,92518.31
2019-04-05T18:10:05.729Z,92521.80
2019-04-05T18:12:34.267Z,92527.01
2019-04-05T18:15:02.799Z,92530.70
2019-04-05T18:17:31.216Z,92536.59
2019-04-05T18:19:59.655Z,92536.70
2019-04-05T18:22:28.177Z,92536.91
2019-04-05T18:24:56.620Z,92545.95
2019-04-05T18:27:25.056Z,92543.34
2019-04-05T18:29:53.590Z,92549.67
2019-04-05T18:32:22.034Z,92549.57
2019-04-05T18:34:50.454Z,92548.69
2019-04-05T18:37:18.987Z,92549.57
2019-04-05T18:39:47.414Z,92549.98
2019-04-05T18:42:15.900Z,92558.14
2019-04-05T18:44:44.482Z,92556.39
2019-04-05T18:47:13.103Z,92560.33
2019-04-05T18:49:41.625Z,92560.26
2019-04-05T18:52:10.173Z,92568.09
2019-04-05T18:54:38.591Z,92569.45
2019-04-05T18:57:07.126Z,92565.30
2019-04-05T18:59:35.585Z,92579.41
2019-04-05T19:02:04.092Z,92577.39
2019-04-05T19:04:32.540Z,92578.42
2019-04-05T19:07:01.760Z,92575.19
2019-04-05T19:09:30.328Z,92570.80
2019-04-05T19:11:58.832Z,92574.98
2019-04-05T19:14:27.324Z,92579.31
2019-04-05T19:16:55.748Z,92573.05
2019-04-05T19:19:24.297Z,92570.64
2019-04-05T19:21:52.814Z,92574.58
2019-04-05T19:24:21.608Z,92570.33
2019-04-05T19:26:50.115Z,92565.71
2019-04-05T19:29:18.628Z,92566.83
2019-04-05T19:49:18.878Z,92580.70
2019-04-05T19:51:47.353Z,92582.45
2019-04-05T19:54:15.787Z,92581.86
2019-04-05T19:56:44.303Z,92588.59
2019-04-05T19:59:12.861Z,92585.05
2019-04-05T20:01:41.335Z,92580.79
2019-04-05T20:04:09.760Z,92582.36
2019-04-05T20:06:38.289Z,92585.05
2019-04-05T20:09:07.296Z,92582.09
2019-04-05T20:11:35.910Z,92583.08
2019-04-05T20:14:04.550Z,92588.45
2019-04-05T20:16:32.969Z,92587.56
2019-04-05T20:19:01.596Z,92590.88
2019-04-05T20:21:30.052Z,92585.00
2019-04-05T20:23:58.483Z,92593.45
2019-04-05T20:26:26.949Z,92591.11
2019-04-05T20:28:55.391Z,92602.42
2019-04-05T20:31:23.847Z,92598.36
2019-04-05T20:33:52.434Z,92603.45
2019-04-05T20:36:20.907Z,92597.44
2019-04-05T20:38:49.532Z,92596.92
2019-04-05T20:41:17.972Z,92595.81
2019-04-05T20:43:46.466Z,92590.98
2019-04-05T20:46:14.952Z,92587.67
2019-04-05T20:48:43.403Z,92594.02
2019-04-05T20:51:11.823Z,92597.30
2019-04-05T20:53:40.352Z,92588.01
2019-04-05T20:56:08.860Z,92593.20
2019-04-05T20:58:37.601Z,92587.09
2019-04-05T21:01:06.178Z,92590.92
2019-04-05T21:03:34.616Z,92593.44
2019-04-05T21:06:03.185Z,92595.30
2019-04-05T21:08:31.618Z,92596.42
2019-04-05T21:11:00.148Z,92595.25
2019-04-05T21:13:28.600Z,92596.16
2019-04-05T21:15:57.101Z,92600.05
2019-04-05T21:18:25.561Z,92592.41
2019-04-05T21:20:54.140Z,92601.38
2019-04-05T21:23:22.577Z,92603.11
2019-04-05T21:25:51.157Z,92603.23
2019-04-05T21:28:19.623Z,92604.03
2019-04-05T21:30:48.074Z,92604.67
2019-04-05T21:33:16.506Z,92608.51
2019-04-05T21:35:46.205Z,92610.46
2019-04-05T21:38:14.678Z,92603.87
2019-04-05T21:40:43.211Z,92610.99
2019-04-05T21:43:11.664Z,92608.08
2019-04-05T21:45:40.184Z,92613.48
2019-04-05T21:48:08.694Z,92610.62
2019-04-05T21:50:37.147Z,92609.33
2019-04-05T21:53:05.614Z,92621.25
2019-04-05T21:55:34.101Z,92611.42
2019-04-05T21:58:02.658Z,92609.79
2019-04-05T22:00:35.201Z,92609.70
2019-04-05T22:03:03.666Z,92615.55
2019-04-05T22:05:32.215Z,92614.47
2019-04-05T22:08:00.793Z,92619.69
2019-04-05T22:10:29.273Z,92624.62
2019-04-05T22:12:57.706Z,92621.56
2019-04-05T22:15:26.166Z,92624.26
2019-04-05T22:17:54.614Z,92619.66
2019-04-05T22:20:23.103Z,92625.28
2019-04-05T22:22:51.602Z,92625.41
2019-04-05T22:25:20.035Z,92631.33
2019-04-05T22:27:48.485Z,92624.38
2019-04-05T22:30:17.056Z,92622.15
2019-04-05T22:32:45.605Z,92623.22
2019-04-05T22:35:14.066Z,92618.70
2019-04-05T22:37:42.591Z,92613.48
2019-04-05T22:40:11.183Z,92630.30
2019-04-05T22:42:39.593Z,92627.36
2019-04-05T22:45:08.397Z,92632.41
2019-04-05T22:47:36.867Z,92627.56
2019-04-05T22:50:08.312Z,92632.09
2019-04-05T22:52:36.769Z,92629.97
2019-04-05T22:55:11.570Z,92631.17
2019-04-05T22:57:36.918Z,92624.28
2019-04-05T23:00:08.903Z,92624.58
2019-04-05T23:02:37.439Z,92627.16
2019-04-05T23:05:19.827Z,92629.45
2019-04-05T23:07:39.311Z,92625.63
2019-04-05T23:10:09.317Z,92630.82
2019-04-05T23:12:37.708Z,92633.80
2019-04-05T23:15:08.006Z,92633.50
2019-04-05T23:17:36.597Z,92638.02
2019-04-05T23:20:06.217Z,92640.88
2019-04-05T23:22:34.808Z,92648.63
2019-04-05T23:25:03.807Z,92644.64
2019-04-05T23:27:32.264Z,92646.80
2019-04-05T23:30:01.555Z,92646.45
2019-04-05T23:32:30.018Z,92649.03
2019-04-05T23:34:58.474Z,92638.37
2019-04-05T23:37:26.884Z,92648.09
2019-04-05T23:39:55.340Z,92637.71
2019-04-05T23:42:23.804Z,92635.78
2019-04-05T23:44:52.259Z,92635.77
2019-04-05T23:47:20.690Z,92631.27
2019-04-05T23:49:49.154Z,92630.61
2019-04-05T23:52:17.605Z,92631.95
2019-04-05T23:54:46.054Z,92632.11
2019-04-05T23:57:14.499Z,92626.80
2019-04-05T23:59:42.957Z,92634.24
